Artesian, Iowa
Current Conditions -  °F | °C
As of 3:54 PM on Monday 26 Jan 2015 (Local Time) from KALO Reporting Station
Overcast Overcast  
Wind Chill: 38°   Ceiling: 4000
Heat Index: 44°   Visibility: 10mi
Dew Point: 36°   Wind: 13mph
Humidity: 73%   Direction: 310°NW
Pressure: 29.79"   Gusts: NA
Location:  42.787°N, 92.4284°W
Report Text: KALO 262154Z AUTO 31011KT 10SM FEW031 OVC040 07/02 A2979 RMK AO2 SLP098 T00670022
Loading
Personal Weather Stations






























Interactive Weather Map New forecast layout! Learn more

10-Day Weather Forecast

Advertisements
Track Severe Weather on mobile